Time;durP1;ratioP1;P1;durP2;ratioP2;P2;SDS_P1;SDS_P2;PMS_P1;PMS_P2;Temp;Humidity;BMP_temperature;BMP_pressure;BME280_temperature;BME280_humidity;BME280_pressure;Samples;Min_cycle;Max_cycle;Signal;HPM_P1;HPM_P2
2022/12/13 00:00:13;;;;;;;;;;;;;;;-3.58;73.07;97712.94;7396410;19;19919;-69
2022/12/13 00:02:40;;;;;;;;;;;;;;;-3.50;72.16;97707.34;7397889;19;19931;-70
2022/12/13 00:05:07;;;;;;;;;;;;;;;-3.75;72.35;97697.50;7399881;19;19939;-69
2022/12/13 00:07:34;;;;;;;;;;;;;;;-3.92;72.58;97700.16;7398623;19;19923;-70
2022/12/13 00:10:00;;;;;;;;;;;;;;;-3.76;72.43;97694.09;7398961;19;19921;-69
2022/12/13 00:12:27;;;;;;;;;;;;;;;-3.72;72.27;97697.34;7395741;19;20604;-69
2022/12/13 00:14:53;;;;;;;;;;;;;;;-3.81;72.56;97697.84;7400263;19;19915;-69
2022/12/13 00:17:20;;;;;;;;;;;;;;;-3.81;72.62;97698.69;7398308;19;19918;-69
2022/12/13 00:19:46;;;;;;;;;;;;;;;-3.92;73.25;97698.44;7397884;19;19943;-69
2022/12/13 00:22:13;;;;;;;;;;;;;;;-3.88;73.39;97688.75;7398872;19;19948;-70
2022/12/13 00:24:39;;;;;;;;;;;;;;;-3.82;73.80;97681.50;7401613;19;19923;-69
2022/12/13 00:27:11;;;;;;;;;;;;;;;-3.71;73.40;97686.09;7399819;19;20347;-70
2022/12/13 00:29:37;;;;;;;;;;;;;;;-3.74;73.12;97683.66;7398452;19;19947;-70
2022/12/13 00:32:04;;;;;;;;;;;;;;;-3.81;73.16;97679.75;7398392;19;19932;-69
2022/12/13 00:34:30;;;;;;;;;;;;;;;-3.72;73.17;97679.25;7396742;19;20273;-70
2022/12/13 00:36:57;;;;;;;;;;;;;;;-3.87;73.11;97693.00;7397651;19;19911;-69
2022/12/13 00:39:24;;;;;;;;;;;;;;;-3.83;73.25;97691.94;7401319;19;20297;-69
2022/12/13 00:41:51;;;;;;;;;;;;;;;-3.75;72.96;97685.41;7397996;19;19950;-69
2022/12/13 00:44:18;;;;;;;;;;;;;;;-3.62;72.54;97679.56;7400590;19;19943;-69
2022/12/13 00:46:45;;;;;;;;;;;;;;;-3.51;71.93;97676.41;7399751;19;19915;-69
2022/12/13 00:49:12;;;;;;;;;;;;;;;-3.59;71.97;97677.66;7400253;19;19915;-69
2022/12/13 00:51:38;;;;;;;;;;;;;;;-3.55;71.87;97679.16;7395254;19;19922;-69
2022/12/13 00:54:05;;;;;;;;;;;;;;;-3.58;72.27;97668.13;7400139;19;19923;-69
2022/12/13 00:56:32;;;;;;;;;;;;;;;-3.61;71.76;97669.13;7400888;19;19923;-69
2022/12/13 00:58:58;;;;;;;;;;;;;;;-3.58;71.70;97663.81;7400654;19;19918;-69
2022/12/13 01:01:26;;;;;;;;;;;;;;;-3.67;72.05;97664.31;7395559;19;20023;-69
2022/12/13 01:03:53;;;;;;;;;;;;;;;-3.70;72.35;97663.66;7400189;19;20273;-70
2022/12/13 01:06:21;;;;;;;;;;;;;;;-3.71;72.13;97656.81;7395394;19;19974;-70
2022/12/13 01:08:47;;;;;;;;;;;;;;;-3.84;72.46;97661.84;7395645;19;19915;-70
2022/12/13 01:11:14;;;;;;;;;;;;;;;-3.88;72.54;97657.75;7385166;19;20348;-70
2022/12/13 01:13:40;;;;;;;;;;;;;;;-3.95;72.40;97658.97;7392795;19;19939;-70
2022/12/13 01:16:07;;;;;;;;;;;;;;;-3.83;72.33;97658.31;7392425;19;19939;-69
2022/12/13 01:18:34;;;;;;;;;;;;;;;-3.86;72.37;97666.25;7391836;19;20335;-69
2022/12/13 01:21:01;;;;;;;;;;;;;;;-3.87;72.59;97656.81;7389669;19;19935;-69
2022/12/13 01:23:27;;;;;;;;;;;;;;;-3.96;72.79;97660.75;7391020;19;20323;-70
2022/12/13 01:25:54;;;;;;;;;;;;;;;-3.90;73.36;97660.41;7389594;19;19911;-70
2022/12/13 01:28:21;;;;;;;;;;;;;;;-3.86;72.98;97661.09;7391999;19;19919;-69
2022/12/13 01:30:57;;;;;;;;;;;;;;;-4.01;73.10;97662.75;7386914;19;19911;-70
2022/12/13 01:33:24;;;;;;;;;;;;;;;-3.97;73.28;97659.91;7390621;19;19919;-69
2022/12/13 01:35:51;;;;;;;;;;;;;;;-4.03;72.99;97668.00;7392806;19;19943;-70
2022/12/13 01:38:18;;;;;;;;;;;;;;;-4.12;73.61;97657.31;7392169;19;19919;-69
2022/12/13 01:40:45;;;;;;;;;;;;;;;-4.02;73.25;97661.91;7385518;19;19927;-70
2022/12/13 01:43:12;;;;;;;;;;;;;;;-3.92;73.42;97664.84;7388500;19;19919;-71
2022/12/13 01:45:40;;;;;;;;;;;;;;;-3.90;72.79;97655.22;7391252;19;19923;-69
2022/12/13 01:48:08;;;;;;;;;;;;;;;-3.84;72.43;97652.34;7391619;19;19998;-69
2022/12/13 01:50:36;;;;;;;;;;;;;;;-3.94;72.21;97646.00;7387589;19;19930;-70
2022/12/13 01:53:03;;;;;;;;;;;;;;;-3.93;72.21;97652.00;7393316;19;19943;-70
2022/12/13 01:55:30;;;;;;;;;;;;;;;-4.01;72.30;97655.81;7390501;19;19940;-69
2022/12/13 01:57:57;;;;;;;;;;;;;;;-4.02;72.61;97651.56;7385613;19;19923;-70
2022/12/13 02:00:24;;;;;;;;;;;;;;;-3.94;72.53;97650.34;7385102;19;19915;-70
2022/12/13 02:02:50;;;;;;;;;;;;;;;-4.07;72.71;97658.75;7390365;19;19914;-70
2022/12/13 02:05:30;;;;;;;;;;;;;;;-3.99;72.07;97654.00;7389039;19;19939;-69
2022/12/13 02:07:57;;;;;;;;;;;;;;;-4.00;72.45;97651.50;7388705;19;19918;-70
2022/12/13 02:10:24;;;;;;;;;;;;;;;-3.99;72.32;97645.41;7388106;19;19923;-70
2022/12/13 02:12:50;;;;;;;;;;;;;;;-4.02;72.27;97645.59;7386496;19;19943;-70
2022/12/13 02:15:17;;;;;;;;;;;;;;;-4.07;72.66;97635.50;7385475;19;20157;-70
2022/12/13 02:17:52;;;;;;;;;;;;;;;-4.05;72.53;97638.84;7388918;19;19914;-70
2022/12/13 02:20:24;;;;;;;;;;;;;;;-4.04;72.50;97639.66;7386982;19;19935;-70
2022/12/13 02:22:59;;;;;;;;;;;;;;;-3.98;72.65;97637.59;7389355;19;19939;-69
2022/12/13 02:25:58;;;;;;;;;;;;;;;-3.99;72.73;97641.06;7388327;19;19998;-69
2022/12/13 02:28:27;;;;;;;;;;;;;;;-4.05;72.73;97638.00;7387875;19;19918;-70
2022/12/13 02:31:17;;;;;;;;;;;;;;;-4.20;72.73;97629.31;7382750;19;19922;-70
2022/12/13 02:33:51;;;;;;;;;;;;;;;-4.09;72.38;97628.75;7386766;19;19990;-70
2022/12/13 02:36:37;;;;;;;;;;;;;;;-4.03;72.43;97628.41;7387965;19;19919;-70
2022/12/13 02:39:13;;;;;;;;;;;;;;;-3.99;72.16;97630.75;7390386;19;19918;-70
2022/12/13 02:41:50;;;;;;;;;;;;;;;-4.01;72.31;97622.22;7387348;19;19968;-70
2022/12/13 02:44:17;;;;;;;;;;;;;;;-4.07;72.41;97620.00;7387655;19;20301;-70
2022/12/13 02:46:51;;;;;;;;;;;;;;;-4.13;71.85;97622.91;7387850;19;19926;-71
2022/12/13 02:49:18;;;;;;;;;;;;;;;-4.21;71.78;97627.66;7382840;19;19910;-70
2022/12/13 02:51:45;;;;;;;;;;;;;;;-4.28;71.51;97618.56;7385122;19;20527;-70
2022/12/13 02:54:11;;;;;;;;;;;;;;;-4.35;71.55;97622.38;7389462;19;19922;-70
2022/12/13 02:56:38;;;;;;;;;;;;;;;-4.30;71.76;97617.81;7388317;19;19915;-70
2022/12/13 02:59:07;;;;;;;;;;;;;;;-4.43;71.55;97621.03;7388527;19;19919;-70
2022/12/13 03:01:52;;;;;;;;;;;;;;;-4.35;72.44;97620.63;7384612;19;19919;-70
2022/12/13 03:06:28;;;;;;;;;;;;;;;-4.30;72.09;97613.47;7385742;19;19914;-69
2022/12/13 03:07:28;;;;;;;;;;;;;;;-4.26;71.97;97616.75;7385582;19;20210;-70
2022/12/13 03:09:58;;;;;;;;;;;;;;;-4.20;71.90;97619.81;7384432;19;19931;-69
2022/12/13 03:15:34;;;;;;;;;;;;;;;-4.26;71.90;97611.59;7385440;19;20340;-70
2022/12/13 03:18:03;;;;;;;;;;;;;;;-4.38;71.35;97607.06;7388491;19;19918;-70
2022/12/13 03:20:29;;;;;;;;;;;;;;;-4.40;72.21;97607.13;7382362;19;20352;-70
2022/12/13 03:22:56;;;;;;;;;;;;;;;-4.33;71.73;97597.31;7382649;19;19947;-70
2022/12/13 03:25:24;;;;;;;;;;;;;;;-4.48;71.15;97597.22;7387853;19;20351;-70
2022/12/13 03:27:58;;;;;;;;;;;;;;;-4.51;71.72;97593.97;7387611;19;20275;-70
2022/12/13 03:30:27;;;;;;;;;;;;;;;-4.48;71.68;97592.06;7386720;19;19951;-70
2022/12/13 03:32:54;;;;;;;;;;;;;;;-4.43;71.36;97602.97;7387020;19;19922;-70
2022/12/13 03:35:21;;;;;;;;;;;;;;;-4.48;71.10;97593.81;7386009;19;19914;-70
2022/12/13 03:37:48;;;;;;;;;;;;;;;-4.53;71.30;97593.22;7383762;19;19938;-70
2022/12/13 03:40:14;;;;;;;;;;;;;;;-4.45;71.57;97594.50;7382487;19;19934;-69
2022/12/13 03:42:41;;;;;;;;;;;;;;;-4.48;71.66;97593.81;7386100;19;19927;-70
2022/12/13 03:45:08;;;;;;;;;;;;;;;-4.54;71.84;97584.63;7388991;19;19915;-70
2022/12/13 03:47:35;;;;;;;;;;;;;;;-4.50;71.66;97583.56;7388044;19;20327;-70
2022/12/13 03:50:02;;;;;;;;;;;;;;;-4.55;71.64;97587.31;7387103;19;19915;-70
2022/12/13 03:52:50;;;;;;;;;;;;;;;-4.54;72.14;97576.06;7385986;19;20324;-70
2022/12/13 03:55:17;;;;;;;;;;;;;;;-4.57;71.82;97584.81;7384059;19;19925;-70
2022/12/13 03:57:44;;;;;;;;;;;;;;;-4.52;71.16;97576.84;7380906;19;19910;-70
2022/12/13 04:00:10;;;;;;;;;;;;;;;-4.62;71.24;97581.63;7378155;19;20288;-70
2022/12/13 04:02:40;;;;;;;;;;;;;;;-4.60;71.70;97584.16;7383775;19;19922;-70
2022/12/13 04:05:08;;;;;;;;;;;;;;;-4.55;71.70;97583.00;7375253;19;19982;-70
2022/12/13 04:07:34;;;;;;;;;;;;;;;-4.52;71.30;97582.00;7385372;19;20269;-70
2022/12/13 04:10:01;;;;;;;;;;;;;;;-4.68;71.45;97576.81;7383762;19;19930;-69
2022/12/13 04:15:33;;;;;;;;;;;;;;;-4.73;71.68;97576.22;7359315;19;19926;-68
2022/12/13 04:17:59;;;;;;;;;;;;;;;-4.72;72.28;97577.88;7354959;19;20344;-68
2022/12/13 04:20:26;;;;;;;;;;;;;;;-4.57;72.27;97581.41;7387955;19;20347;-68
2022/12/13 04:22:52;;;;;;;;;;;;;;;-4.53;72.06;97573.41;7386032;19;19930;-69
2022/12/13 04:25:19;;;;;;;;;;;;;;;-4.59;72.32;97571.16;7386793;19;19926;-69
2022/12/13 04:27:46;;;;;;;;;;;;;;;-4.62;72.58;97573.91;7382476;19;20274;-68
2022/12/13 04:30:12;;;;;;;;;;;;;;;-4.54;71.84;97566.56;7383256;19;19914;-69
2022/12/13 04:32:39;;;;;;;;;;;;;;;-4.52;72.01;97571.66;7387758;19;20355;-71
2022/12/13 04:35:05;;;;;;;;;;;;;;;-4.47;71.95;97572.25;7389370;19;19923;-71
2022/12/13 04:37:32;;;;;;;;;;;;;;;-4.45;72.18;97567.81;7386844;19;19939;-71
2022/12/13 04:39:58;;;;;;;;;;;;;;;-4.49;72.01;97556.84;7386022;19;20335;-71
2022/12/13 04:42:26;;;;;;;;;;;;;;;-4.50;72.04;97565.50;7384404;19;20340;-71
2022/12/13 04:44:53;;;;;;;;;;;;;;;-4.49;71.98;97567.16;7382550;19;19935;-71
2022/12/13 04:47:19;;;;;;;;;;;;;;;-4.45;71.57;97565.25;7391989;19;20348;-68
2022/12/13 04:49:46;;;;;;;;;;;;;;;-4.50;71.47;97564.66;7391820;19;19922;-68
2022/12/13 04:52:13;;;;;;;;;;;;;;;-4.51;71.56;97570.75;7394296;19;19943;-69
2022/12/13 04:54:48;;;;;;;;;;;;;;;-4.61;71.21;97562.66;7391538;19;20376;-69
2022/12/13 04:57:21;;;;;;;;;;;;;;;-4.57;71.73;97561.56;7394597;19;19922;-72
2022/12/13 04:59:47;;;;;;;;;;;;;;;-4.53;71.47;97557.94;7391688;19;19922;-69
2022/12/13 05:02:14;;;;;;;;;;;;;;;-4.66;71.50;97564.63;7388090;19;20466;-69
2022/12/13 05:04:49;;;;;;;;;;;;;;;-4.57;71.45;97568.50;7388483;19;20348;-69
2022/12/13 05:07:21;;;;;;;;;;;;;;;-4.55;71.56;97564.09;7392216;19;19922;-70
2022/12/13 05:09:48;;;;;;;;;;;;;;;-4.74;71.33;97557.31;7392575;19;19915;-69
2022/12/13 05:12:14;;;;;;;;;;;;;;;-4.69;71.19;97562.22;7393269;19;19947;-69
2022/12/13 05:14:49;;;;;;;;;;;;;;;-4.79;71.24;97566.19;7387578;19;20622;-70
2022/12/13 05:17:15;;;;;;;;;;;;;;;-4.86;71.23;97565.69;7390541;19;19918;-69
2022/12/13 05:19:42;;;;;;;;;;;;;;;-4.86;71.26;97561.38;7385419;19;19911;-69
2022/12/13 05:22:14;;;;;;;;;;;;;;;-4.91;71.32;97570.25;7391028;19;20294;-69
2022/12/13 05:24:46;;;;;;;;;;;;;;;-4.88;71.10;97568.34;7390993;19;19915;-70
2022/12/13 05:27:12;;;;;;;;;;;;;;;-4.92;71.51;97560.88;7392970;19;19915;-70
2022/12/13 05:29:55;;;;;;;;;;;;;;;-4.97;71.25;97557.69;7393116;19;19930;-70
2022/12/13 05:32:35;;;;;;;;;;;;;;;-4.88;71.17;97550.28;7392639;19;19922;-69
2022/12/13 05:35:14;;;;;;;;;;;;;;;-4.99;71.52;97549.19;7389272;19;20286;-69
2022/12/13 05:37:51;;;;;;;;;;;;;;;-4.98;71.70;97554.25;7390155;19;20323;-69
2022/12/13 05:40:20;;;;;;;;;;;;;;;-4.89;71.47;97551.22;7390162;19;20378;-69
2022/12/13 05:42:47;;;;;;;;;;;;;;;-4.88;71.57;97550.28;7387771;19;20293;-70
2022/12/13 05:45:14;;;;;;;;;;;;;;;-4.85;71.17;97551.88;7391943;19;19914;-70
2022/12/13 05:47:41;;;;;;;;;;;;;;;-4.88;71.50;97549.47;7383134;19;20018;-70
2022/12/13 05:50:12;;;;;;;;;;;;;;;-4.72;71.27;97549.47;7384939;19;21373;-69
2022/12/13 05:52:38;;;;;;;;;;;;;;;-4.82;70.91;97558.63;7385597;19;19919;-70
2022/12/13 05:55:05;;;;;;;;;;;;;;;-4.89;70.85;97558.13;7386421;19;19918;-70
2022/12/13 05:57:32;;;;;;;;;;;;;;;-4.89;70.78;97550.38;7388719;19;19952;-70
2022/12/13 05:59:59;;;;;;;;;;;;;;;-5.01;71.06;97549.25;7391689;19;20244;-70
2022/12/13 06:02:26;;;;;;;;;;;;;;;-5.16;71.39;97548.31;7390676;19;19926;-70
2022/12/13 06:04:53;;;;;;;;;;;;;;;-5.16;71.69;97543.16;7391278;19;20372;-70
2022/12/13 06:07:20;;;;;;;;;;;;;;;-5.10;71.02;97537.69;7386791;19;20407;-70
2022/12/13 06:09:46;;;;;;;;;;;;;;;-5.11;71.32;97537.75;7382032;19;19926;-72
2022/12/13 06:12:14;;;;;;;;;;;;;;;-5.04;70.88;97539.13;7386092;19;19914;-71
2022/12/13 06:14:57;;;;;;;;;;;;;;;-5.09;70.83;97548.81;7387683;19;19923;-72
2022/12/13 06:17:30;;;;;;;;;;;;;;;-5.14;70.96;97545.66;7391591;19;19965;-71
2022/12/13 06:19:57;;;;;;;;;;;;;;;-5.28;71.12;97548.94;7391640;19;19911;-71
2022/12/13 06:22:24;;;;;;;;;;;;;;;-5.15;70.94;97544.00;7388066;19;19926;-71
2022/12/13 06:24:51;;;;;;;;;;;;;;;-5.22;71.37;97550.38;7384088;19;19919;-71
2022/12/13 06:27:19;;;;;;;;;;;;;;;-5.38;71.67;97555.47;7380906;19;19919;-71
2022/12/13 06:29:46;;;;;;;;;;;;;;;-5.25;71.72;97550.53;7385689;19;19965;-71
2022/12/13 06:32:13;;;;;;;;;;;;;;;-5.23;71.33;97549.53;7387055;19;19938;-71
2022/12/13 06:34:39;;;;;;;;;;;;;;;-5.11;71.20;97548.06;7389737;19;19915;-72
2022/12/13 06:37:06;;;;;;;;;;;;;;;-5.14;71.76;97543.91;7388967;19;19936;-71
2022/12/13 06:39:33;;;;;;;;;;;;;;;-5.14;72.01;97540.50;7381046;19;20433;-71
2022/12/13 06:42:00;;;;;;;;;;;;;;;-5.15;71.67;97546.56;7379675;19;19948;-71
2022/12/13 06:44:27;;;;;;;;;;;;;;;-5.04;71.84;97533.13;7383934;19;19939;-72
2022/12/13 06:46:54;;;;;;;;;;;;;;;-5.09;71.60;97541.09;7391622;19;19944;-71
2022/12/13 06:49:38;;;;;;;;;;;;;;;-5.05;71.14;97537.44;7390153;19;19918;-71
2022/12/13 06:52:05;;;;;;;;;;;;;;;-5.06;71.08;97543.50;7390564;19;20376;-72
2022/12/13 06:54:32;;;;;;;;;;;;;;;-4.96;71.09;97539.53;7386284;19;19930;-71
2022/12/13 06:56:58;;;;;;;;;;;;;;;-4.86;70.92;97545.88;7385312;19;20351;-71
2022/12/13 06:59:25;;;;;;;;;;;;;;;-4.97;71.16;97550.78;7384553;19;19978;-71
2022/12/13 07:01:51;;;;;;;;;;;;;;;-5.10;71.32;97558.31;7388342;19;19922;-71
2022/12/13 07:04:18;;;;;;;;;;;;;;;-5.01;71.50;97557.00;7385951;19;19918;-71
2022/12/13 07:06:56;;;;;;;;;;;;;;;-4.98;71.13;97558.59;7389458;19;19915;-71
2022/12/13 07:09:28;;;;;;;;;;;;;;;-5.02;70.71;97557.09;7385930;19;19978;-71
2022/12/13 07:11:54;;;;;;;;;;;;;;;-5.04;70.68;97559.75;7389985;19;19926;-71
2022/12/13 07:14:21;;;;;;;;;;;;;;;-5.02;70.69;97559.69;7381426;19;20297;-71
2022/12/13 07:16:47;;;;;;;;;;;;;;;-5.13;70.75;97566.22;7384692;19;19930;-71
2022/12/13 07:19:14;;;;;;;;;;;;;;;-5.02;71.65;97557.09;7387603;19;20277;-71
2022/12/13 07:21:50;;;;;;;;;;;;;;;-4.98;72.23;97563.75;7387341;19;20262;-71
2022/12/13 07:24:16;;;;;;;;;;;;;;;-4.91;71.84;97554.78;7384273;19;19943;-71
2022/12/13 07:26:43;;;;;;;;;;;;;;;-4.92;71.36;97559.13;7388169;19;20347;-71
2022/12/13 07:29:09;;;;;;;;;;;;;;;-4.74;70.73;97562.50;7387888;19;20316;-71
2022/12/13 07:31:36;;;;;;;;;;;;;;;-4.81;70.93;97555.97;7385148;19;19970;-71
2022/12/13 07:34:03;;;;;;;;;;;;;;;-4.88;71.22;97562.38;7383964;19;19925;-71
2022/12/13 07:36:29;;;;;;;;;;;;;;;-4.98;71.73;97566.31;7389464;19;19914;-71
2022/12/13 07:38:56;;;;;;;;;;;;;;;-4.85;71.23;97570.75;7390166;19;19930;-71
2022/12/13 07:41:23;;;;;;;;;;;;;;;-4.74;71.10;97566.78;7388058;19;19927;-71
2022/12/13 07:43:52;;;;;;;;;;;;;;;-4.57;71.81;97573.66;7385209;19;19926;-71
2022/12/13 07:46:22;;;;;;;;;;;;;;;-4.53;71.85;97578.59;7388228;19;19915;-71
2022/12/13 07:48:59;;;;;;;;;;;;;;;-4.49;71.15;97581.81;7377318;19;19998;-71
2022/12/13 07:51:27;;;;;;;;;;;;;;;-4.37;71.03;97590.66;7386623;19;19994;-71
2022/12/13 07:53:53;;;;;;;;;;;;;;;-4.36;71.52;97593.16;7387985;19;19968;-71
2022/12/13 07:56:20;;;;;;;;;;;;;;;-4.23;70.54;97594.16;7389656;19;19949;-71
2022/12/13 07:58:46;;;;;;;;;;;;;;;-4.13;70.68;97597.09;7388246;19;19940;-71
2022/12/13 08:01:13;;;;;;;;;;;;;;;-4.10;70.51;97596.91;7388069;19;19923;-71
2022/12/13 08:03:39;;;;;;;;;;;;;;;-4.12;70.35;97603.09;7381542;19;19927;-71
2022/12/13 08:06:07;;;;;;;;;;;;;;;-3.99;70.95;97602.31;7383724;19;20364;-71
2022/12/13 08:08:34;;;;;;;;;;;;;;;-3.91;70.72;97598.47;7377978;19;19927;-71
2022/12/13 08:11:04;;;;;;;;;;;;;;;-3.92;70.11;97599.38;7384130;19;19998;-71
2022/12/13 08:13:31;;;;;;;;;;;;;;;-4.14;70.00;97597.97;7382669;19;19923;-71
2022/12/13 08:16:01;;;;;;;;;;;;;;;-4.03;70.20;97597.41;7381765;19;19919;-71
2022/12/13 08:18:28;;;;;;;;;;;;;;;-3.93;70.15;97597.72;7386164;19;19925;-71
2022/12/13 08:20:59;;;;;;;;;;;;;;;-3.89;69.92;97594.06;7392344;19;19919;-71
2022/12/13 08:23:25;;;;;;;;;;;;;;;-3.91;70.54;97601.06;7389449;19;19922;-71
2022/12/13 08:25:52;;;;;;;;;;;;;;;-3.79;70.55;97605.53;7394523;19;19919;-71
2022/12/13 08:28:22;;;;;;;;;;;;;;;-3.56;69.54;97594.72;7394191;19;20640;-70
2022/12/13 08:30:49;;;;;;;;;;;;;;;-3.53;69.29;97598.91;7393677;19;19940;-71
2022/12/13 08:33:15;;;;;;;;;;;;;;;-3.73;70.19;97606.97;7392738;19;19919;-71
2022/12/13 08:35:42;;;;;;;;;;;;;;;-3.60;69.70;97607.94;7394778;19;20247;-72
2022/12/13 08:38:09;;;;;;;;;;;;;;;-3.45;69.91;97601.06;7391230;19;19935;-72
2022/12/13 08:40:36;;;;;;;;;;;;;;;-3.40;69.61;97593.88;7389387;19;20659;-72
2022/12/13 08:43:04;;;;;;;;;;;;;;;-3.32;69.29;97591.66;7390176;19;19974;-72
2022/12/13 08:45:33;;;;;;;;;;;;;;;-3.20;69.17;97600.47;7393814;19;20245;-72
2022/12/13 08:47:59;;;;;;;;;;;;;;;-3.16;69.16;97605.41;7394229;19;19934;-71
2022/12/13 08:50:26;;;;;;;;;;;;;;;-3.13;68.36;97592.28;7391244;19;19935;-72
2022/12/13 08:52:53;;;;;;;;;;;;;;;-3.21;67.47;97607.41;7392784;19;19939;-72
2022/12/13 08:55:19;;;;;;;;;;;;;;;-3.06;68.09;97615.19;7390450;19;20302;-71
2022/12/13 08:57:57;;;;;;;;;;;;;;;-3.04;68.44;97610.78;7391187;19;19923;-71
2022/12/13 09:00:26;;;;;;;;;;;;;;;-3.11;67.89;97605.97;7391166;19;20298;-71
2022/12/13 09:02:56;;;;;;;;;;;;;;;-2.90;67.90;97613.38;7393857;19;19974;-71
2022/12/13 09:05:22;;;;;;;;;;;;;;;-2.88;67.21;97604.59;7394807;19;19927;-72
2022/12/13 09:08:01;;;;;;;;;;;;;;;-2.76;67.27;97597.84;7393859;19;19978;-72
2022/12/13 09:10:28;;;;;;;;;;;;;;;-2.87;66.55;97603.69;7392426;19;19915;-71
2022/12/13 09:13:04;;;;;;;;;;;;;;;-2.72;67.27;97603.69;7387194;19;19961;-71
2022/12/13 09:15:44;;;;;;;;;;;;;;;-2.58;65.75;97605.41;7392285;19;19927;-70
2022/12/13 09:18:17;;;;;;;;;;;;;;;-2.58;66.06;97597.66;7393794;19;19919;-72
2022/12/13 09:20:51;;;;;;;;;;;;;;;-2.37;66.37;97591.19;7393522;19;19951;-71
2022/12/13 09:23:17;;;;;;;;;;;;;;;-2.25;65.98;97585.22;7391473;19;19939;-71
2022/12/13 09:25:56;;;;;;;;;;;;;;;-2.19;65.67;97590.97;7392674;19;20348;-71
2022/12/13 09:28:31;;;;;;;;;;;;;;;-2.31;64.96;97595.16;7389300;19;19929;-71
2022/12/13 09:30:58;;;;;;;;;;;;;;;-2.05;66.18;97588.34;7385167;19;19921;-70
2022/12/13 09:33:25;;;;;;;;;;;;;;;-2.03;66.53;97582.16;7390959;19;19945;-71
2022/12/13 09:35:56;;;;;;;;;;;;;;;-1.93;64.87;97589.31;7392938;19;19974;-70
2022/12/13 09:38:22;;;;;;;;;;;;;;;-1.83;65.17;97588.63;7391602;19;19940;-70
2022/12/13 09:40:49;;;;;;;;;;;;;;;-1.81;64.92;97583.38;7389963;19;19961;-71
2022/12/13 09:43:26;;;;;;;;;;;;;;;-1.76;64.33;97594.28;7388448;19;19978;-71
2022/12/13 09:45:58;;;;;;;;;;;;;;;-1.84;64.61;97599.94;7388617;19;19927;-70
2022/12/13 09:48:26;;;;;;;;;;;;;;;-1.62;64.25;97606.34;7389675;19;19922;-71
2022/12/13 09:51:00;;;;;;;;;;;;;;;-1.80;64.51;97611.78;7389478;19;19919;-70
2022/12/13 09:53:45;;;;;;;;;;;;;;;-1.83;64.66;97605.97;7390994;19;19923;-71
2022/12/13 09:56:12;;;;;;;;;;;;;;;-1.87;63.50;97597.56;7389271;19;19968;-71
2022/12/13 09:58:38;;;;;;;;;;;;;;;-1.68;63.48;97588.59;7384616;19;20267;-71
2022/12/13 10:01:05;;;;;;;;;;;;;;;-1.52;63.30;97591.88;7389900;19;19922;-71
2022/12/13 10:03:31;;;;;;;;;;;;;;;-1.59;62.98;97590.59;7385369;19;19960;-70
2022/12/13 10:05:59;;;;;;;;;;;;;;;-1.51;63.68;97592.69;7390287;19;19915;-71
2022/12/13 10:08:34;;;;;;;;;;;;;;;-1.43;62.12;97593.84;7391809;19;19914;-71
2022/12/13 10:11:01;;;;;;;;;;;;;;;-1.52;62.82;97586.66;7390831;19;19922;-71
2022/12/13 10:13:41;;;;;;;;;;;;;;;-1.45;63.82;97589.69;7387410;19;19915;-71
2022/12/13 10:16:18;;;;;;;;;;;;;;;-1.39;63.72;97577.16;7389651;19;19918;-71
2022/12/13 10:18:49;;;;;;;;;;;;;;;-1.40;63.18;97572.06;7388736;19;20348;-71
2022/12/13 10:21:34;;;;;;;;;;;;;;;-1.58;62.81;97574.09;7385090;19;20340;-71
2022/12/13 10:24:04;;;;;;;;;;;;;;;-1.42;63.40;97573.91;7381257;19;19919;-68
2022/12/13 10:26:50;;;;;;;;;;;;;;;-1.45;62.86;97577.56;7361964;19;20880;-68
2022/12/13 10:29:17;;;;;;;;;;;;;;;-1.45;62.40;97569.78;7361261;19;19922;-67
2022/12/13 10:31:44;;;;;;;;;;;;;;;-1.39;62.86;97564.19;7387181;19;19918;-68
2022/12/13 10:34:29;;;;;;;;;;;;;;;-1.28;62.70;97560.06;7386043;19;19922;-68
2022/12/13 10:36:56;;;;;;;;;;;;;;;-1.40;62.51;97559.91;7385728;19;19974;-68
2022/12/13 10:39:38;;;;;;;;;;;;;;;-1.36;63.21;97557.97;7387160;19;20068;-68
2022/12/13 10:42:10;;;;;;;;;;;;;;;-1.14;62.94;97554.75;7389025;19;19951;-68
2022/12/13 10:44:37;;;;;;;;;;;;;;;-1.23;64.47;97548.44;7388406;19;19965;-69
2022/12/13 10:47:09;;;;;;;;;;;;;;;-1.09;63.76;97542.31;7391400;19;19919;-68
2022/12/13 10:49:50;;;;;;;;;;;;;;;-1.16;62.40;97535.84;7388132;19;20396;-68
2022/12/13 10:52:24;;;;;;;;;;;;;;;-1.04;62.15;97536.81;7383375;19;19927;-68
2022/12/13 10:54:57;;;;;;;;;;;;;;;-0.85;63.03;97529.41;7383850;19;19948;-68
2022/12/13 10:57:26;;;;;;;;;;;;;;;-0.90;63.65;97536.69;7387765;19;19919;-68
2022/12/13 10:59:53;;;;;;;;;;;;;;;-0.84;63.50;97538.03;7389076;19;19930;-68
2022/12/13 11:02:25;;;;;;;;;;;;;;;-0.77;62.92;97531.47;7383507;19;19935;-69
2022/12/13 11:04:52;;;;;;;;;;;;;;;-0.73;62.13;97536.38;7385008;19;19922;-68
2022/12/13 11:07:29;;;;;;;;;;;;;;;-0.54;62.35;97535.91;7384848;19;19915;-68
2022/12/13 11:09:56;;;;;;;;;;;;;;;-0.69;61.68;97534.38;7381375;19;19952;-68
2022/12/13 11:12:31;;;;;;;;;;;;;;;-0.68;61.83;97541.25;7384898;19;20337;-68
2022/12/13 11:14:57;;;;;;;;;;;;;;;-0.60;62.54;97536.34;7380270;19;20009;-68
2022/12/13 11:17:25;;;;;;;;;;;;;;;-0.54;62.14;97528.13;7389376;19;19926;-68
2022/12/13 11:19:52;;;;;;;;;;;;;;;-0.47;61.38;97531.97;7387512;19;19926;-68
2022/12/13 11:22:37;;;;;;;;;;;;;;;-0.39;62.07;97522.81;7390783;19;19948;-68
2022/12/13 11:25:07;;;;;;;;;;;;;;;-0.43;62.52;97516.97;7382806;19;20306;-68
2022/12/13 11:27:50;;;;;;;;;;;;;;;-0.42;61.34;97513.44;7382466;19;19926;-68
2022/12/13 11:30:26;;;;;;;;;;;;;;;-0.34;61.87;97502.50;7388508;19;19915;-68
2022/12/13 11:33:19;;;;;;;;;;;;;;;-0.42;61.34;97504.81;7390082;19;19923;-68
2022/12/13 11:35:53;;;;;;;;;;;;;;;-0.41;61.11;97509.06;7388024;19;19923;-68
2022/12/13 11:38:21;;;;;;;;;;;;;;;-0.52;61.88;97513.25;7387290;19;20361;-68
2022/12/13 11:40:48;;;;;;;;;;;;;;;-0.55;61.66;97495.28;7387531;19;19914;-69
2022/12/13 11:43:21;;;;;;;;;;;;;;;-0.35;61.91;97493.03;7383936;19;19919;-68
2022/12/13 11:45:51;;;;;;;;;;;;;;;-0.49;61.74;97489.66;7386119;19;19919;-68
2022/12/13 11:48:22;;;;;;;;;;;;;;;-0.38;62.26;97503.66;7385820;19;19927;-68
2022/12/13 11:50:50;;;;;;;;;;;;;;;-0.16;62.21;97493.38;7385766;19;19923;-68
2022/12/13 11:53:30;;;;;;;;;;;;;;;-0.01;61.51;97497.47;7386440;19;19931;-68
2022/12/13 11:56:09;;;;;;;;;;;;;;;0.16;60.62;97487.63;7386147;19;19922;-68
2022/12/13 11:58:42;;;;;;;;;;;;;;;0.15;61.37;97486.78;7383143;19;20340;-68
2022/12/13 12:01:34;;;;;;;;;;;;;;;0.24;60.51;97487.03;7385817;19;20264;-68
2022/12/13 12:04:18;;;;;;;;;;;;;;;0.06;61.07;97481.44;7383568;19;19911;-68
2022/12/13 12:06:53;;;;;;;;;;;;;;;0.05;61.54;97484.97;7386822;19;19926;-68
2022/12/13 12:09:19;;;;;;;;;;;;;;;0.15;62.14;97489.38;7385533;19;19922;-68
2022/12/13 12:11:55;;;;;;;;;;;;;;;0.10;62.72;97477.66;7386315;19;19945;-68
2022/12/13 12:14:23;;;;;;;;;;;;;;;0.18;62.25;97480.53;7384395;19;19923;-67
2022/12/13 12:16:54;;;;;;;;;;;;;;;0.22;61.83;97481.97;7384313;19;20262;-68
2022/12/13 12:19:24;;;;;;;;;;;;;;;0.23;62.41;97478.41;7380509;19;19926;-69
2022/12/13 12:21:51;;;;;;;;;;;;;;;0.25;62.15;97473.13;7381876;19;19948;-68
2022/12/13 12:24:43;;;;;;;;;;;;;;;0.41;61.02;97477.03;7384777;19;19967;-68
2022/12/13 12:27:12;;;;;;;;;;;;;;;0.44;60.63;97476.81;7383905;19;19922;-68
2022/12/13 12:29:54;;;;;;;;;;;;;;;0.42;60.69;97483.94;7384992;19;19922;-69
2022/12/13 12:32:40;;;;;;;;;;;;;;;0.37;61.18;97478.25;7376069;19;19922;-68
2022/12/13 12:35:28;;;;;;;;;;;;;;;0.55;60.52;97465.59;7380838;19;19914;-68
2022/12/13 12:38:19;;;;;;;;;;;;;;;0.39;59.50;97468.53;7382636;19;19953;-69
2022/12/13 12:41:09;;;;;;;;;;;;;;;0.51;59.52;97455.56;7384244;19;19923;-69
2022/12/13 12:43:43;;;;;;;;;;;;;;;0.47;59.19;97460.16;7383603;19;19982;-68
2022/12/13 12:46:28;;;;;;;;;;;;;;;0.52;59.43;97452.81;7385528;19;19944;-69
2022/12/13 12:49:15;;;;;;;;;;;;;;;0.44;59.37;97456.00;7385458;19;19978;-69
2022/12/13 12:51:51;;;;;;;;;;;;;;;0.42;59.91;97459.66;7381666;19;19922;-68
2022/12/13 12:54:20;;;;;;;;;;;;;;;0.57;60.51;97461.13;7386686;19;19919;-69
2022/12/13 12:56:49;;;;;;;;;;;;;;;0.47;60.30;97460.16;7385172;19;19919;-68
2022/12/13 12:59:16;;;;;;;;;;;;;;;0.41;60.25;97458.84;7382652;19;19974;-68
2022/12/13 13:01:46;;;;;;;;;;;;;;;0.34;59.33;97451.59;7387710;19;20282;-68
2022/12/13 13:04:13;;;;;;;;;;;;;;;0.51;59.05;97445.97;7386207;19;20194;-68
2022/12/13 13:07:17;;;;;;;;;;;;;;;0.67;59.49;97444.81;7390786;19;20312;-68
2022/12/13 13:09:49;;;;;;;;;;;;;;;0.56;59.19;97437.81;7389948;19;19918;-68